Time;durP1;ratioP1;P1;durP2;ratioP2;P2;SDS_P1;SDS_P2;PMS_P1;PMS_P2;Temp;Humidity;BMP_temperature;BMP_pressure;BME280_temperature;BME280_humidity;BME280_pressure;Samples;Min_cycle;Max_cycle;Signal;HPM_P1;HPM_P2
2022/06/16 00:02:13;;;;;;;6.40;4.73;;;;;;;14.44;100.00;100300.70;1675168;85;21022;-57
2022/06/16 00:04:45;;;;;;;5.95;4.42;;;;;;;14.48;100.00;100309.25;1675326;85;21537;-59
2022/06/16 00:07:10;;;;;;;7.57;4.60;;;;;;;14.52;100.00;100304.43;1673257;85;21102;-65
2022/06/16 00:09:39;;;;;;;6.37;4.43;;;;;;;14.47;100.00;100308.13;1673813;84;21014;-57
2022/06/16 00:12:07;;;;;;;7.93;4.50;;;;;;;14.40;100.00;100309.48;1634220;86;21247;-57
2022/06/16 00:14:35;;;;;;;5.80;4.50;;;;;;;14.40;100.00;100305.55;1622941;87;21079;-66
2022/06/16 00:17:05;;;;;;;7.37;4.10;;;;;;;14.42;100.00;100301.40;1633531;86;21287;-65
2022/06/16 00:19:32;;;;;;;7.03;4.10;;;;;;;14.42;100.00;100299.58;1634287;87;21030;-57
2022/06/16 00:22:00;;;;;;;5.87;4.23;;;;;;;14.44;100.00;100302.02;1675867;84;21266;-56
2022/06/16 00:24:27;;;;;;;4.47;3.60;;;;;;;14.35;100.00;100294.34;1631356;86;21779;-61
2022/06/16 00:26:56;;;;;;;7.20;4.40;;;;;;;14.29;100.00;100303.06;1632457;86;21529;-58
2022/06/16 00:29:24;;;;;;;7.53;4.83;;;;;;;14.23;100.00;100306.48;1630549;86;21094;-58
2022/06/16 00:31:51;;;;;;;6.67;4.67;;;;;;;14.21;100.00;100305.11;1635005;86;21464;-57
2022/06/16 00:34:20;;;;;;;7.47;5.00;;;;;;;14.17;100.00;100307.33;1634172;86;21099;-57
2022/06/16 00:36:47;;;;;;;9.10;5.30;;;;;;;14.08;100.00;100311.96;1640657;86;21256;-58
2022/06/16 00:39:15;;;;;;;7.63;5.57;;;;;;;14.05;100.00;100315.02;1633991;86;21007;-67
2022/06/16 00:41:42;;;;;;;7.33;5.37;;;;;;;14.07;100.00;100307.73;1640121;86;22275;-57
2022/06/16 00:44:33;;;;;;;8.83;5.37;;;;;;;14.09;100.00;100312.77;1636354;86;21912;-66
2022/06/16 00:47:00;;;;;;;7.75;5.20;;;;;;;14.07;100.00;100312.98;1646213;86;21678;-60
2022/06/16 00:49:27;;;;;;;8.83;4.53;;;;;;;13.99;100.00;100317.12;1638760;86;21726;-58
2022/06/16 00:52:00;;;;;;;6.27;5.10;;;;;;;13.98;100.00;100312.91;1631940;86;21019;-66
2022/06/16 00:54:34;;;;;;;7.00;4.43;;;;;;;13.98;100.00;100312.91;1625488;86;21532;-58
2022/06/16 00:57:07;;;;;;;6.27;4.07;;;;;;;13.98;100.00;100312.08;1636747;86;21541;-59
2022/06/16 00:59:34;;;;;;;7.05;4.12;;;;;;;13.98;100.00;100318.15;1634024;86;21884;-64
2022/06/16 01:02:03;;;;;;;5.53;3.70;;;;;;;13.97;100.00;100320.95;1616860;86;21371;-58
2022/06/16 01:07:24;;;;;;;5.73;3.40;;;;;;;14.04;100.00;100321.75;1646110;85;21096;-58
2022/06/16 01:09:52;;;;;;;5.17;3.37;;;;;;;14.11;100.00;100314.18;1646598;85;21103;-59
2022/06/16 01:16:16;;;;;;;6.33;2.90;;;;;;;14.19;100.00;100314.98;1631933;86;21257;-57
2022/06/16 01:19:13;;;;;;;4.50;3.20;;;;;;;14.20;100.00;100314.76;1671993;84;21074;-58
2022/06/16 01:22:01;;;;;;;7.73;2.97;;;;;;;14.19;100.00;100314.98;1597075;87;21556;-58
2022/06/16 01:24:42;;;;;;;4.10;3.23;;;;;;;14.16;100.00;100319.31;1614047;87;21545;-58
2022/06/16 01:27:35;;;;;;;5.35;3.20;;;;;;;14.17;100.00;100319.61;1629451;84;22079;-59
2022/06/16 01:30:09;;;;;;;4.47;3.20;;;;;;;14.14;100.00;100327.39;1638668;87;21283;-59
2022/06/16 01:33:01;;;;;;;7.80;3.00;;;;;;;14.08;100.00;100339.99;1638802;86;21095;-67
2022/06/16 01:35:38;;;;;;;4.50;2.47;;;;;;;13.94;100.00;100318.25;1633859;86;20972;-60
2022/06/16 01:38:21;;;;;;;3.30;2.70;;;;;;;13.87;100.00;100320.88;1639920;86;21085;-68
2022/06/16 01:41:21;;;;;;;4.60;2.90;;;;;;;13.72;100.00;100320.28;1638193;87;21047;-59
2022/06/16 01:44:03;;;;;;;5.17;3.10;;;;;;;13.54;100.00;100318.25;1641816;86;21750;-58
2022/06/16 01:46:32;;;;;;;5.03;2.87;;;;;;;13.55;100.00;100319.05;1639070;85;20964;-59
2022/06/16 01:49:08;;;;;;;4.17;2.63;;;;;;;13.54;100.00;100318.76;1639855;86;20967;-62
2022/06/16 01:51:48;;;;;;;7.63;2.80;;;;;;;13.54;100.00;100323.48;1643560;86;21158;-59
2022/06/16 01:54:30;;;;;;;4.93;3.00;;;;;;;13.49;100.00;100327.22;1610961;87;21669;-59
2022/06/16 01:57:12;;;;;;;3.93;2.00;;;;;;;13.48;100.00;100328.71;1642499;86;21241;-62
2022/06/16 02:00:03;;;;;;;5.13;2.67;;;;;;;13.66;100.00;100329.44;1640816;85;21106;-60
2022/06/16 02:02:34;;;;;;;5.05;2.33;;;;;;;14.06;100.00;100330.23;1644850;86;21070;-66
2022/06/16 02:05:14;;;;;;;4.97;2.00;;;;;;;14.61;100.00;100326.78;1639853;86;21102;-57
2022/06/16 02:07:49;;;;;;;4.70;2.70;;;;;;;15.18;100.00;100322.98;1677704;84;21015;-59
2022/06/16 02:10:26;;;;;;;3.67;2.30;;;;;;;15.77;100.00;100321.27;1675728;84;21802;-57
2022/06/16 02:12:57;;;;;;;3.63;2.00;;;;;;;16.32;100.00;100324.47;1675566;85;21030;-58
2022/06/16 02:15:53;;;;;;;4.67;1.82;;;;;;;16.91;100.00;100327.47;1667307;84;21613;-67
2022/06/16 02:18:27;;;;;;;3.67;1.90;;;;;;;17.44;100.00;100324.87;1622759;87;21213;-58
2022/06/16 02:21:19;;;;;;;3.97;2.13;;;;;;;18.02;100.00;100326.50;1675959;84;21119;-58
2022/06/16 02:23:48;;;;;;;3.37;2.17;;;;;;;18.58;100.00;100321.08;1674731;85;21149;-59
2022/06/16 02:26:16;;;;;;;3.27;1.90;;;;;;;19.30;100.00;100317.93;1675190;85;21095;-57
2022/06/16 02:28:47;;;;;;;4.10;2.40;;;;;;;19.85;100.00;100318.53;1630594;87;21080;-59
2022/06/16 02:31:35;;;;;;;5.10;2.10;;;;;;;20.43;100.00;100315.89;1637127;87;21078;-58
2022/06/16 02:34:23;;;;;;;3.23;2.13;;;;;;;20.98;100.00;100314.91;1633558;87;21420;-67
2022/06/16 02:37:33;;;;;;;5.20;3.00;;;;;;;21.60;100.00;100323.71;1605702;86;21491;-67
2022/06/16 02:40:18;;;;;;;4.00;2.50;;;;;;;22.01;100.00;100327.97;1634258;86;21106;-58
2022/06/16 02:43:12;;;;;;;3.00;2.37;;;;;;;22.49;100.00;100320.77;1609321;87;21594;-59
2022/06/16 02:46:16;;;;;;;3.97;2.13;;;;;;;23.01;100.00;100319.88;1649270;85;20963;-58
2022/06/16 02:49:09;;;;;;;3.50;2.10;;;;;;;23.26;100.00;100318.28;1626695;86;21109;-57
2022/06/16 02:51:45;;;;;;;4.90;2.40;;;;;;;23.73;100.00;100314.58;1636525;86;21528;-65
2022/06/16 02:54:31;;;;;;;4.83;2.50;;;;;;;24.26;100.00;100321.63;1636560;86;21470;-59
2022/06/16 02:57:12;;;;;;;3.30;2.10;;;;;;;24.70;100.00;100320.91;1631555;86;20924;-58
2022/06/16 02:59:49;;;;;;;3.00;2.05;;;;;;;25.16;97.65;100312.66;1631905;87;21546;-58
2022/06/16 03:02:19;;;;;;;4.15;2.12;;;;;;;25.67;87.52;100312.20;1639092;86;21565;-60
2022/06/16 03:04:50;;;;;;;2.72;1.85;;;;;;;26.03;83.73;100315.88;1634661;86;21256;-59
2022/06/16 03:07:20;;;;;;;6.00;1.62;;;;;;;26.50;77.86;100319.06;1632037;87;21035;-59
2022/06/16 03:09:49;;;;;;;2.30;1.62;;;;;;;26.86;71.93;100322.59;1631473;87;21451;-59
2022/06/16 03:12:18;;;;;;;2.90;1.70;;;;;;;27.06;69.26;100317.47;1636624;86;21101;-58
2022/06/16 03:14:46;;;;;;;3.00;1.60;;;;;;;27.32;67.05;100316.01;1632214;87;21559;-56
2022/06/16 03:17:13;;;;;;;2.40;1.32;;;;;;;27.65;64.01;100321.31;1631776;87;21923;-58
2022/06/16 03:19:42;;;;;;;2.40;1.30;;;;;;;27.98;62.43;100318.05;1625657;87;21562;-56
2022/06/16 03:22:10;;;;;;;3.98;1.92;;;;;;;28.22;60.79;100320.52;1634019;86;21008;-59
2022/06/16 03:24:37;;;;;;;2.35;1.50;;;;;;;28.38;59.42;100323.73;1632502;86;21054;-56
2022/06/16 03:27:06;;;;;;;3.10;1.77;;;;;;;28.53;58.22;100323.95;1632004;87;21090;-58
2022/06/16 03:29:35;;;;;;;2.33;1.65;;;;;;;28.83;57.52;100327.85;1631706;87;21156;-56
2022/06/16 03:32:03;;;;;;;4.55;1.87;;;;;;;29.07;55.50;100324.34;1632090;87;21615;-57
2022/06/16 03:34:30;;;;;;;4.55;1.50;;;;;;;29.26;54.26;100332.21;1634447;86;21634;-56
2022/06/16 03:37:00;;;;;;;3.22;1.60;;;;;;;29.33;53.81;100327.20;1679447;84;21035;-56
2022/06/16 03:39:30;;;;;;;;;;;;;;;29.42;53.75;100332.62;1675407;84;21047;-57
2022/06/16 03:41:58;;;;;;;2.58;1.50;;;;;;;29.58;53.22;100328.46;1680104;84;21142;-66
2022/06/16 03:44:25;;;;;;;2.67;1.77;;;;;;;29.80;53.54;100328.17;1675254;84;21393;-56
2022/06/16 03:46:53;;;;;;;2.58;1.30;;;;;;;30.02;51.03;100327.31;1678171;83;21781;-63
2022/06/16 03:49:22;;;;;;;2.65;1.60;;;;;;;30.16;50.14;100323.99;1674349;84;22312;-58
2022/06/16 03:51:50;;;;;;;2.75;1.55;;;;;;;30.40;50.41;100322.77;1676919;84;21111;-56
2022/06/16 03:54:25;;;;;;;3.70;1.87;;;;;;;30.71;49.48;100332.05;1663901;85;20997;-57
2022/06/16 03:56:54;;;;;;;3.12;1.85;;;;;;;30.98;49.00;100332.30;1675969;85;21169;-57
2022/06/16 03:59:23;;;;;;;2.77;1.60;;;;;;;31.00;48.07;100332.80;1664626;84;21082;-57
2022/06/16 04:01:54;;;;;;;2.58;2.00;;;;;;;31.09;46.92;100332.22;1669185;85;20964;-64
2022/06/16 04:04:23;;;;;;;3.43;1.87;;;;;;;31.30;48.21;100330.22;1623241;86;21548;-56
2022/06/16 04:06:51;;;;;;;2.20;1.47;;;;;;;31.73;46.84;100332.23;1629898;85;21267;-57
2022/06/16 04:09:22;;;;;;;2.55;1.45;;;;;;;32.05;45.95;100334.12;1636740;87;21330;-56
2022/06/16 04:11:49;;;;;;;2.98;1.70;;;;;;;32.28;45.17;100331.93;1631624;86;21079;-60
2022/06/16 04:14:18;;;;;;;2.70;1.70;;;;;;;32.56;45.16;100325.48;1634140;87;21189;-66
2022/06/16 04:16:56;;;;;;;4.22;2.40;;;;;;;32.72;43.43;100328.94;1633840;87;21580;-59
2022/06/16 04:19:25;;;;;;;2.33;1.50;;;;;;;32.84;44.08;100333.03;1636590;86;21198;-57
2022/06/16 04:21:53;;;;;;;3.45;1.60;;;;;;;33.01;43.49;100333.48;1633324;86;21139;-57
2022/06/16 04:24:22;;;;;;;2.92;2.00;;;;;;;33.02;42.30;100331.01;1634369;86;21063;-66
2022/06/16 04:26:54;;;;;;;3.25;2.30;;;;;;;33.27;42.40;100325.92;1678332;84;21009;-60
2022/06/16 04:29:19;;;;;;;3.60;2.90;;;;;;;33.61;42.09;100334.23;1647849;85;21083;-59
2022/06/16 04:31:48;;;;;;;3.98;2.10;;;;;;;33.89;41.86;100325.45;1675799;84;21496;-58
2022/06/16 04:34:17;;;;;;;4.28;2.22;;;;;;;34.13;41.11;100328.18;1674629;84;21003;-64
2022/06/16 04:36:47;;;;;;;5.20;2.23;;;;;;;34.34;40.49;100328.02;1683796;84;21125;-58
2022/06/16 04:39:18;;;;;;;;;;;;;;;34.62;39.92;100332.13;1677445;84;20963;-59
2022/06/16 04:41:46;;;;;;;;;;;;;;;34.96;38.92;100331.33;1679492;84;20305;-57
2022/06/16 04:44:15;;;;;;;2.72;2.27;;;;;;;35.35;38.55;100334.34;1675961;84;21246;-59
2022/06/16 04:46:46;;;;;;;5.83;2.65;;;;;;;35.78;37.71;100334.05;1683752;84;21537;-59
2022/06/16 04:49:14;;;;;;;3.35;2.27;;;;;;;36.06;36.73;100334.72;1679669;84;21034;-58
2022/06/16 04:51:45;;;;;;;4.33;2.70;;;;;;;36.26;36.79;100331.50;1675981;85;21559;-58
2022/06/16 04:54:13;;;;;;;4.50;2.40;;;;;;;36.52;36.28;100331.46;1629584;87;21072;-58
2022/06/16 04:56:51;;;;;;;4.22;2.67;;;;;;;36.66;36.35;100329.62;1632279;86;21328;-60
2022/06/16 04:59:37;;;;;;;3.72;2.80;;;;;;;36.75;35.90;100328.84;1625590;87;21106;-66
2022/06/16 05:02:12;;;;;;;5.35;3.10;;;;;;;36.96;35.32;100325.19;1637917;87;21097;-58
2022/06/16 05:04:54;;;;;;;6.17;2.98;;;;;;;36.91;35.68;100325.46;1635793;86;21123;-59
2022/06/16 05:07:39;;;;;;;3.45;2.75;;;;;;;37.23;35.41;100330.71;1634286;87;21066;-58
2022/06/16 05:10:09;;;;;;;4.50;2.70;;;;;;;37.50;34.82;100332.95;1671775;85;21396;-62
2022/06/16 05:12:45;;;;;;;4.50;3.02;;;;;;;37.82;34.01;100323.16;1671823;85;21384;-58
2022/06/16 05:15:29;;;;;;;4.47;2.40;;;;;;;38.25;32.49;100323.78;1662154;85;21067;-58
2022/06/16 05:18:15;;;;;;;5.97;3.30;;;;;;;38.65;31.71;100323.14;1606324;88;22184;-58
2022/06/16 05:20:44;;;;;;;5.92;3.58;;;;;;;38.88;31.41;100322.45;1658018;84;21062;-58
2022/06/16 05:23:20;;;;;;;4.60;2.98;;;;;;;38.92;31.07;100331.45;1674652;84;21320;-58
2022/06/16 05:26:01;;;;;;;4.45;3.17;;;;;;;39.14;30.45;100328.36;1678423;84;21543;-60
2022/06/16 05:28:37;;;;;;;5.65;2.85;;;;;;;39.33;29.94;100327.39;1666124;84;21087;-58
2022/06/16 05:31:09;;;;;;;6.33;3.87;;;;;;;39.33;29.79;100328.75;1681585;84;20995;-59
2022/06/16 05:33:38;;;;;;;5.33;3.13;;;;;;;39.28;29.50;100329.08;1675234;84;20976;-58
2022/06/16 05:36:17;;;;;;;5.08;3.30;;;;;;;39.32;29.17;100331.84;1677641;84;20956;-58
2022/06/16 05:39:03;;;;;;;4.17;3.20;;;;;;;39.52;28.85;100334.56;1677280;84;21620;-63
2022/06/16 05:41:35;;;;;;;4.70;3.40;;;;;;;39.71;28.32;100334.14;1669729;84;21498;-60
2022/06/16 05:44:13;;;;;;;5.15;3.15;;;;;;;39.55;28.51;100334.36;1676261;84;21063;-57
2022/06/16 05:46:51;;;;;;;6.30;4.28;;;;;;;39.38;28.59;100333.84;1677065;84;21576;-60
2022/06/16 05:49:21;;;;;;;6.33;4.75;;;;;;;39.49;28.40;100333.16;1655480;85;21378;-67
2022/06/16 05:51:50;;;;;;;4.92;3.75;;;;;;;39.72;28.39;100332.97;1676072;85;21555;-58
2022/06/16 05:54:19;;;;;;;6.47;4.10;;;;;;;39.82;28.05;100335.78;1675209;84;21517;-57
2022/06/16 05:56:47;;;;;;;6.17;4.00;;;;;;;39.96;28.03;100333.70;1675081;85;21005;-60
2022/06/16 05:59:16;;;;;;;4.67;3.27;;;;;;;40.02;27.03;100331.41;1633893;87;21455;-60
2022/06/16 06:01:45;;;;;;;5.10;3.67;;;;;;;39.73;26.27;100328.48;1630744;87;21105;-58
2022/06/16 06:04:13;;;;;;;4.10;2.90;;;;;;;39.46;26.47;100325.73;1632162;87;21107;-59
2022/06/16 06:06:41;;;;;;;4.00;2.70;;;;;;;39.41;25.54;100326.28;1630516;87;21088;-59
2022/06/16 06:17:31;;;;;;;6.75;2.20;;;;;;;39.91;24.75;100327.83;1641870;86;21426;-58
2022/06/16 06:19:57;;;;;;;3.40;2.35;;;;;;;39.66;24.88;100332.50;1640430;86;20899;-60
2022/06/16 06:22:27;;;;;;;3.33;2.30;;;;;;;39.53;24.41;100325.20;1639353;86;20967;-60
2022/06/16 06:25:06;;;;;;;4.42;2.65;;;;;;;39.64;23.98;100328.02;1644887;86;21078;-56
2022/06/16 06:27:42;;;;;;;3.90;2.80;;;;;;;39.62;23.92;100326.23;1609990;88;21164;-57
2022/06/16 06:30:22;;;;;;;4.55;2.47;;;;;;;39.48;24.20;100320.69;1683150;84;21461;-64
2022/06/16 06:32:48;;;;;;;4.08;2.50;;;;;;;39.27;24.84;100330.25;1681879;84;26520;-60
2022/06/16 06:35:16;;;;;;;3.27;2.22;;;;;;;39.24;23.67;100328.27;1684611;84;21008;-57
2022/06/16 06:37:44;;;;;;;4.17;1.92;;;;;;;39.13;24.00;100334.17;1680513;84;21481;-64
2022/06/16 06:40:24;;;;;;;3.17;2.20;;;;;;;39.18;23.12;100328.39;1682414;84;22243;-58
2022/06/16 06:42:52;;;;;;;3.75;2.15;;;;;;;38.96;23.09;100334.79;1676662;84;21369;-60
2022/06/16 06:45:20;;;;;;;4.10;1.98;;;;;;;38.50;23.32;100333.09;1642954;86;21513;-57
2022/06/16 06:47:49;;;;;;;2.62;1.90;;;;;;;38.11;23.52;100336.06;1682795;84;21032;-57
2022/06/16 06:50:26;;;;;;;2.42;1.50;;;;;;;37.58;24.05;100332.48;1634978;86;21078;-55
2022/06/16 06:52:54;;;;;;;3.98;1.45;;;;;;;36.88;24.22;100337.04;1637133;86;21170;-56
2022/06/16 06:55:21;;;;;;;3.75;1.27;;;;;;;35.99;23.86;100346.80;1677051;84;21509;-63
2022/06/16 06:57:51;;;;;;;2.80;0.90;;;;;;;35.19;24.03;100347.05;1682457;84;21669;-57
2022/06/16 07:00:21;;;;;;;2.30;1.22;;;;;;;34.30;24.18;100347.42;1682403;84;20912;-56
2022/06/16 07:02:48;;;;;;;3.02;1.65;;;;;;;33.52;25.33;100357.06;1685473;84;21021;-56
2022/06/16 07:05:15;;;;;;;5.37;1.75;;;;;;;33.01;25.60;100355.09;1678814;84;21199;-57
2022/06/16 07:07:44;;;;;;;3.20;1.92;;;;;;;32.90;26.17;100357.38;1631150;86;21065;-56
2022/06/16 07:10:12;;;;;;;3.37;1.62;;;;;;;33.36;26.37;100349.56;1675379;84;21047;-57
2022/06/16 07:12:41;;;;;;;2.30;1.32;;;;;;;34.02;26.76;100349.23;1638972;85;21027;-56
2022/06/16 07:15:10;;;;;;;3.65;1.12;;;;;;;34.65;25.15;100350.19;1631471;87;21560;-58
2022/06/16 07:17:39;;;;;;;3.62;1.40;;;;;;;35.10;23.26;100341.23;1633604;86;21364;-56
2022/06/16 07:20:08;;;;;;;3.95;1.40;;;;;;;35.45;23.98;100349.28;1674774;84;21498;-56
2022/06/16 07:22:36;;;;;;;2.92;1.40;;;;;;;36.02;22.00;100343.93;1634532;87;21091;-57
2022/06/16 07:25:04;;;;;;;3.98;1.82;;;;;;;36.51;21.88;100343.48;1606704;87;21361;-66
2022/06/16 07:27:31;;;;;;;3.12;1.60;;;;;;;36.87;21.87;100342.27;1631894;87;21085;-57
2022/06/16 07:30:00;;;;;;;2.25;1.30;;;;;;;36.84;22.26;100347.63;1639889;86;21018;-55
2022/06/16 07:32:27;;;;;;;3.17;1.85;;;;;;;36.49;20.91;100346.56;1632101;87;21029;-58
2022/06/16 07:34:54;;;;;;;2.87;1.60;;;;;;;35.75;21.53;100348.31;1634640;86;21043;-57
2022/06/16 07:37:21;;;;;;;3.22;1.65;;;;;;;35.16;22.17;100345.84;1630823;87;21400;-57
2022/06/16 07:39:48;;;;;;;2.85;1.65;;;;;;;34.91;23.63;100338.93;1636739;86;21150;-56
2022/06/16 07:42:16;;;;;;;3.08;1.60;;;;;;;34.66;23.24;100350.41;1674841;84;21914;-55
2022/06/16 07:44:43;;;;;;;2.20;1.60;;;;;;;34.06;23.29;100348.81;1635141;87;21040;-65
2022/06/16 07:47:10;;;;;;;3.25;1.62;;;;;;;33.72;24.21;100345.93;1631167;87;22440;-65
2022/06/16 07:49:37;;;;;;;3.08;1.70;;;;;;;33.87;24.21;100354.19;1634867;86;21098;-55
2022/06/16 07:52:06;;;;;;;3.35;2.17;;;;;;;33.89;23.89;100351.92;1637658;86;21110;-56
2022/06/16 07:54:34;;;;;;;3.12;1.72;;;;;;;33.70;24.18;100353.61;1634175;86;21083;-65
2022/06/16 07:57:03;;;;;;;2.37;1.55;;;;;;;33.69;24.98;100358.23;1630812;87;21505;-55
2022/06/16 07:59:31;;;;;;;3.35;1.52;;;;;;;34.07;24.00;100357.93;1630971;87;20941;-57
2022/06/16 08:01:58;;;;;;;2.47;1.62;;;;;;;34.57;23.67;100354.61;1635753;86;21134;-57
2022/06/16 08:04:26;;;;;;;2.27;1.20;;;;;;;34.99;21.82;100345.58;1622447;87;21123;-59
2022/06/16 08:06:53;;;;;;;2.60;1.60;;;;;;;35.24;20.56;100357.66;1634891;87;21255;-56
2022/06/16 08:09:22;;;;;;;2.75;2.20;;;;;;;35.07;21.82;100353.33;1630928;87;21024;-64
2022/06/16 08:12:07;;;;;;;3.85;1.90;;;;;;;34.84;22.89;100357.12;1634639;86;21672;-59
2022/06/16 08:14:38;;;;;;;2.85;1.95;;;;;;;34.86;22.82;100357.01;1636694;86;21269;-55
2022/06/16 08:17:07;;;;;;;3.15;1.80;;;;;;;35.05;21.57;100355.04;1633377;87;21028;-58
2022/06/16 08:19:35;;;;;;;3.08;1.82;;;;;;;35.20;22.07;100358.92;1640015;87;21157;-57
2022/06/16 08:22:04;;;;;;;2.98;1.50;;;;;;;35.38;21.36;100355.30;1610040;87;20968;-62
2022/06/16 08:24:32;;;;;;;3.70;1.95;;;;;;;35.43;21.44;100361.05;1637198;86;21133;-55
2022/06/16 08:27:00;;;;;;;2.95;1.62;;;;;;;35.65;21.68;100355.61;1677388;84;21093;-57
2022/06/16 08:29:27;;;;;;;3.00;1.60;;;;;;;35.67;21.73;100358.77;1636403;87;21826;-56
2022/06/16 08:31:56;;;;;;;2.77;1.55;;;;;;;35.66;21.22;100361.27;1634386;87;21907;-55
2022/06/16 08:34:24;;;;;;;3.05;1.75;;;;;;;35.54;20.59;100364.28;1627952;87;21624;-56
2022/06/16 08:36:51;;;;;;;3.77;2.00;;;;;;;35.44;20.83;100363.98;1633311;87;21460;-64
2022/06/16 08:39:19;;;;;;;2.90;1.92;;;;;;;35.35;21.20;100366.86;1675042;84;21568;-56
2022/06/16 08:41:53;;;;;;;4.15;2.02;;;;;;;35.30;21.20;100368.45;1638400;87;21488;-55
2022/06/16 08:44:38;;;;;;;3.42;2.10;;;;;;;35.22;21.28;100366.69;1635432;87;21157;-64
2022/06/16 08:47:16;;;;;;;2.77;1.80;;;;;;;35.18;21.52;100367.17;1632035;87;20982;-56
2022/06/16 08:50:22;;;;;;;2.33;1.57;;;;;;;35.21;22.04;100360.48;1635505;86;21151;-55
2022/06/16 08:53:21;;;;;;;3.20;2.00;;;;;;;35.49;21.28;100359.10;1632876;87;21032;-55
2022/06/16 08:56:12;;;;;;;4.17;2.20;;;;;;;35.73;21.76;100358.73;1633767;87;21979;-56
2022/06/16 08:59:02;;;;;;;3.33;2.02;;;;;;;35.85;21.90;100354.56;1675186;84;21230;-56
2022/06/16 09:01:38;;;;;;;2.77;1.80;;;;;;;35.90;21.85;100354.29;1667123;84;20984;-55
2022/06/16 09:04:42;;;;;;;2.40;1.40;;;;;;;36.13;21.42;100350.39;1678144;84;21028;-57
2022/06/16 09:07:24;;;;;;;3.25;1.42;;;;;;;36.40;20.66;100354.08;1671609;84;21436;-56
2022/06/16 09:10:39;;;;;;;3.75;1.80;;;;;;;36.68;20.15;100358.58;1675226;84;20969;-63
2022/06/16 09:13:30;;;;;;;2.70;1.90;;;;;;;36.83;20.07;100354.22;1639940;85;21269;-56
2022/06/16 09:16:13;;;;;;;;;;;;;;;37.07;19.98;100347.13;1675352;84;21525;-56
2022/06/16 09:18:56;;;;;;;3.75;1.85;;;;;;;37.14;20.13;100340.47;1669273;84;20084;-64
2022/06/16 09:21:38;;;;;;;3.30;2.05;;;;;;;37.30;20.31;100346.38;1638089;87;21362;-59
2022/06/16 09:24:16;;;;;;;3.55;1.42;;;;;;;36.95;19.98;100353.52;1635579;87;21071;-55
2022/06/16 09:27:16;;;;;;;3.30;1.80;;;;;;;36.01;21.34;100360.00;1678446;84;22460;-56
2022/06/16 09:30:03;;;;;;;2.75;1.62;;;;;;;34.78;22.90;100358.52;1596817;87;21089;-57
2022/06/16 09:32:48;;;;;;;3.35;1.40;;;;;;;33.26;24.17;100371.59;1632015;87;21084;-55
2022/06/16 09:35:42;;;;;;;2.47;1.37;;;;;;;32.18;24.41;100364.10;1631106;87;21090;-58
2022/06/16 09:38:32;;;;;;;5.45;1.95;;;;;;;31.28;25.06;100378.22;1640264;86;20963;-56
2022/06/16 09:44:02;;;;;;;2.52;1.40;;;;;;;31.11;26.69;100373.09;1636622;87;21449;-56
2022/06/16 09:46:35;;;;;;;2.25;1.22;;;;;;;31.71;25.20;100372.78;1638184;86;21099;-58
2022/06/16 09:49:15;;;;;;;2.40;1.35;;;;;;;32.03;24.83;100370.05;1638365;86;21861;-56
2022/06/16 09:51:57;;;;;;;1.35;1.20;;;;;;;32.19;24.70;100377.02;1635238;87;20995;-56
2022/06/16 09:54:34;;;;;;;2.67;1.30;;;;;;;32.28;24.92;100372.92;1624978;86;21670;-57
2022/06/16 09:57:07;;;;;;;2.83;1.60;;;;;;;32.31;25.02;100377.67;1640419;86;21142;-56
2022/06/16 09:59:39;;;;;;;2.98;1.80;;;;;;;32.56;25.02;100370.02;1634199;86;21166;-58
2022/06/16 10:02:23;;;;;;;2.95;1.65;;;;;;;32.94;25.03;100369.13;1635106;86;21137;-58
2022/06/16 10:04:51;;;;;;;4.95;2.05;;;;;;;33.12;24.13;100361.09;1639658;84;21091;-55
2022/06/16 10:07:31;;;;;;;4.77;2.00;;;;;;;32.89;24.08;100374.14;1635782;86;21091;-57
2022/06/16 10:10:22;;;;;;;3.02;1.90;;;;;;;32.51;24.44;100376.97;1624172;87;21034;-57
2022/06/16 10:13:11;;;;;;;3.10;1.72;;;;;;;32.26;24.86;100377.88;1624245;87;20933;-61
2022/06/16 10:15:48;;;;;;;3.72;2.20;;;;;;;32.19;25.16;100373.77;1617797;87;21103;-55
2022/06/16 10:18:17;;;;;;;3.12;1.70;;;;;;;32.16;25.11;100365.00;1613229;87;21051;-63
2022/06/16 10:20:45;;;;;;;2.30;1.27;;;;;;;32.43;24.81;100370.51;1611149;87;21272;-63
2022/06/16 10:23:23;;;;;;;2.62;1.47;;;;;;;32.75;24.88;100366.08;1642267;86;21003;-56
2022/06/16 10:25:59;;;;;;;2.00;1.37;;;;;;;33.41;24.66;100369.64;1642464;86;21035;-55
2022/06/16 10:28:34;;;;;;;2.30;1.40;;;;;;;33.88;23.72;100366.58;1629635;86;20979;-60
2022/06/16 10:31:03;;;;;;;4.58;1.60;;;;;;;34.03;23.52;100361.09;1642060;86;21460;-56
2022/06/16 10:33:35;;;;;;;5.00;2.50;;;;;;;34.01;23.65;100359.27;1638981;86;21284;-56
2022/06/16 10:36:20;;;;;;;4.03;1.90;;;;;;;33.96;23.47;100350.58;1641914;86;20943;-56
2022/06/16 10:39:10;;;;;;;3.10;1.40;;;;;;;34.09;23.55;100352.95;1643416;86;21293;-56
2022/06/16 10:42:14;;;;;;;2.27;1.37;;;;;;;34.44;23.65;100347.06;1614260;85;21089;-62
2022/06/16 10:44:57;;;;;;;3.05;2.00;;;;;;;34.85;22.49;100352.73;1641730;86;21075;-56
2022/06/16 10:47:49;;;;;;;4.15;1.90;;;;;;;34.73;22.91;100357.38;1627552;86;21797;-57
2022/06/16 10:50:21;;;;;;;2.98;1.80;;;;;;;34.85;23.30;100350.56;1637828;86;21014;-57
2022/06/16 10:52:56;;;;;;;3.00;1.62;;;;;;;34.89;22.41;100345.25;1641035;86;21584;-55
2022/06/16 10:55:29;;;;;;;2.30;1.55;;;;;;;34.50;23.74;100345.71;1612476;87;21130;-55
2022/06/16 10:58:03;;;;;;;5.47;2.10;;;;;;;34.72;23.68;100349.05;1645127;86;21075;-61
2022/06/16 11:00:32;;;;;;;3.15;1.50;;;;;;;34.92;22.67;100352.12;1646420;85;21136;-63
2022/06/16 11:03:11;;;;;;;3.08;1.62;;;;;;;34.43;22.08;100346.82;1652593;85;22019;-55
2022/06/16 11:05:55;;;;;;;2.73;1.70;;;;;;;33.55;22.56;100350.42;1645776;85;21161;-55
2022/06/16 11:08:23;;;;;;;2.17;1.50;;;;;;;33.02;23.53;100349.34;1667284;84;21071;-57
2022/06/16 11:10:56;;;;;;;2.95;1.32;;;;;;;32.99;23.67;100341.91;1635631;86;21030;-55
2022/06/16 11:13:34;;;;;;;3.15;1.62;;;;;;;33.15;23.88;100345.58;1602687;88;21145;-56
2022/06/16 11:16:10;;;;;;;3.02;1.82;;;;;;;33.55;23.76;100351.78;1631908;87;20999;-65
2022/06/16 11:18:38;;;;;;;2.50;1.30;;;;;;;34.05;23.54;100349.34;1640065;86;21098;-56
2022/06/16 11:21:17;;;;;;;3.87;1.90;;;;;;;34.31;23.18;100352.27;1638945;86;21078;-55
2022/06/16 11:23:52;;;;;;;6.27;2.50;;;;;;;34.46;22.33;100338.02;1632448;87;21588;-61
2022/06/16 11:26:28;;;;;;;2.98;1.72;;;;;;;34.29;22.60;100349.13;1632627;87;21577;-55
2022/06/16 11:29:01;;;;;;;3.42;1.80;;;;;;;33.95;22.67;100352.50;1632617;87;21027;-56
2022/06/16 11:31:40;;;;;;;2.58;1.35;;;;;;;33.34;21.97;100360.50;1638754;86;21024;-57
2022/06/16 11:34:17;;;;;;;2.30;1.45;;;;;;;32.59;21.98;100355.87;1631607;87;21051;-55
2022/06/16 11:37:08;;;;;;;4.70;1.70;;;;;;;32.01;22.95;100355.30;1639195;86;21099;-55
2022/06/16 11:39:56;;;;;;;2.58;1.50;;;;;;;31.53;23.48;100356.42;1635593;86;22291;-56
2022/06/16 11:42:51;;;;;;;5.20;2.02;;;;;;;31.25;24.33;100354.86;1622041;87;21023;-64
2022/06/16 11:45:45;;;;;;;2.65;1.77;;;;;;;31.41;24.52;100357.09;1632972;87;21098;-55
2022/06/16 11:48:38;;;;;;;3.58;1.67;;;;;;;31.82;24.00;100354.32;1634961;86;21130;-56
2022/06/16 11:51:21;;;;;;;3.08;1.92;;;;;;;32.36;23.50;100354.01;1633014;87;21576;-55
2022/06/16 11:54:26;;;;;;;3.52;1.80;;;;;;;32.77;23.76;100348.97;1636156;86;21638;-54
2022/06/16 11:57:26;;;;;;;4.08;1.60;;;;;;;33.10;24.09;100349.83;1675717;84;21060;-58
2022/06/16 12:00:18;;;;;;;2.60;1.57;;;;;;;33.51;23.34;100349.52;1670223;84;20987;-62
2022/06/16 12:03:13;;;;;;;5.10;2.25;;;;;;;33.78;23.07;100352.70;1636770;86;21027;-56
2022/06/16 12:06:04;;;;;;;4.70;1.47;;;;;;;33.56;22.47;100345.23;1605884;87;21013;-63
2022/06/16 12:09:08;;;;;;;2.45;1.60;;;;;;;33.33;22.76;100339.98;1678509;84;21249;-55
2022/06/16 12:11:49;;;;;;;2.02;1.30;;;;;;;33.22;22.25;100344.23;1643616;86;21487;-55
2022/06/16 12:15:13;;;;;;;4.37;1.50;;;;;;;32.96;21.96;100345.29;1647818;86;21076;-59
2022/06/16 12:18:18;;;;;;;2.22;1.45;;;;;;;32.62;22.37;100344.98;1646916;86;20970;-62
2022/06/16 12:21:14;;;;;;;3.95;1.70;;;;;;;32.02;23.60;100349.60;1648125;85;21095;-56
2022/06/16 12:24:16;;;;;;;4.87;1.60;;;;;;;31.46;24.83;100352.86;1642827;87;21209;-56